sensor_id;sensor_type;location;lat;lon;timestamp;temperature;humidity
39067;DHT22;24821;51.988;6.020;2023-05-10T00:00:30;15.10;99.90
39067;DHT22;24821;51.988;6.020;2023-05-10T00:02:56;15.10;99.90
39067;DHT22;24821;51.988;6.020;2023-05-10T00:05:22;15.10;99.90
39067;DHT22;24821;51.988;6.020;2023-05-10T00:07:47;15.20;99.90
39067;DHT22;24821;51.988;6.020;2023-05-10T00:10:13;15.10;99.90
39067;DHT22;24821;51.988;6.020;2023-05-10T00:12:38;15.20;99.90
39067;DHT22;24821;51.988;6.020;2023-05-10T00:15:04;15.10;99.90
39067;DHT22;24821;51.988;6.020;2023-05-10T00:17:30;15.10;99.90
39067;DHT22;24821;51.988;6.020;2023-05-10T00:19:56;15.20;99.90
39067;DHT22;24821;51.988;6.020;2023-05-10T00:22:21;15.20;99.90
39067;DHT22;24821;51.988;6.020;2023-05-10T00:24:47;15.10;99.90
39067;DHT22;24821;51.988;6.020;2023-05-10T00:27:12;15.10;99.90
39067;DHT22;24821;51.988;6.020;2023-05-10T00:29:38;15.10;99.90
39067;DHT22;24821;51.988;6.020;2023-05-10T00:32:04;15.10;99.90
39067;DHT22;24821;51.988;6.020;2023-05-10T00:34:29;15.20;99.90
39067;DHT22;24821;51.988;6.020;2023-05-10T00:36:55;15.20;99.90
39067;DHT22;24821;51.988;6.020;2023-05-10T00:39:21;15.20;99.90
39067;DHT22;24821;51.988;6.020;2023-05-10T00:41:47;15.20;99.90
39067;DHT22;24821;51.988;6.020;2023-05-10T00:44:12;15.20;99.90
39067;DHT22;24821;51.988;6.020;2023-05-10T00:46:38;15.20;99.90
39067;DHT22;24821;51.988;6.020;2023-05-10T00:49:04;15.20;99.90
39067;DHT22;24821;51.988;6.020;2023-05-10T00:51:29;15.20;99.90
39067;DHT22;24821;51.988;6.020;2023-05-10T00:53:56;15.20;99.90
39067;DHT22;24821;51.988;6.020;2023-05-10T00:56:22;15.20;99.90
39067;DHT22;24821;51.988;6.020;2023-05-10T00:58:49;15.20;99.90
39067;DHT22;24821;51.988;6.020;2023-05-10T01:01:15;15.20;99.90
39067;DHT22;24821;51.988;6.020;2023-05-10T01:03:41;15.20;99.90
39067;DHT22;24821;51.988;6.020;2023-05-10T01:06:07;15.20;99.90
39067;DHT22;24821;51.988;6.020;2023-05-10T01:08:33;15.20;99.90
39067;DHT22;24821;51.988;6.020;2023-05-10T01:10:59;15.20;99.90
39067;DHT22;24821;51.988;6.020;2023-05-10T01:13:34;15.20;99.90
39067;DHT22;24821;51.988;6.020;2023-05-10T01:16:01;15.20;99.90
39067;DHT22;24821;51.988;6.020;2023-05-10T01:18:30;15.20;99.90
39067;DHT22;24821;51.988;6.020;2023-05-10T01:21:22;15.20;99.90
39067;DHT22;24821;51.988;6.020;2023-05-10T01:30:16;15.20;99.90
39067;DHT22;24821;51.988;6.020;2023-05-10T01:35:15;15.20;99.90
39067;DHT22;24821;51.988;6.020;2023-05-10T01:37:49;15.10;99.90
39067;DHT22;24821;51.988;6.020;2023-05-10T01:43:00;15.10;99.90
39067;DHT22;24821;51.988;6.020;2023-05-10T01:45:38;15.10;99.90
39067;DHT22;24821;51.988;6.020;2023-05-10T01:48:14;15.10;99.90
39067;DHT22;24821;51.988;6.020;2023-05-10T01:50:43;15.20;99.90
39067;DHT22;24821;51.988;6.020;2023-05-10T01:53:10;15.10;99.90
39067;DHT22;24821;51.988;6.020;2023-05-10T01:55:47;15.20;99.90
39067;DHT22;24821;51.988;6.020;2023-05-10T01:58:17;15.20;99.90
39067;DHT22;24821;51.988;6.020;2023-05-10T02:00:46;15.20;99.90
39067;DHT22;24821;51.988;6.020;2023-05-10T02:03:14;15.20;99.90
39067;DHT22;24821;51.988;6.020;2023-05-10T02:05:43;15.20;99.90
39067;DHT22;24821;51.988;6.020;2023-05-10T02:08:11;15.10;99.90
39067;DHT22;24821;51.988;6.020;2023-05-10T02:10:39;15.20;99.90
39067;DHT22;24821;51.988;6.020;2023-05-10T02:13:06;15.20;99.90
39067;DHT22;24821;51.988;6.020;2023-05-10T02:15:33;15.20;99.90
39067;DHT22;24821;51.988;6.020;2023-05-10T02:18:00;15.20;99.90
39067;DHT22;24821;51.988;6.020;2023-05-10T02:20:27;15.10;99.90
39067;DHT22;24821;51.988;6.020;2023-05-10T02:22:55;15.10;99.90
39067;DHT22;24821;51.988;6.020;2023-05-10T02:25:23;15.20;99.90
39067;DHT22;24821;51.988;6.020;2023-05-10T02:27:50;15.20;99.90
39067;DHT22;24821;51.988;6.020;2023-05-10T02:30:18;15.20;99.90
39067;DHT22;24821;51.988;6.020;2023-05-10T02:32:44;15.10;99.90
39067;DHT22;24821;51.988;6.020;2023-05-10T02:35:11;15.10;99.90
39067;DHT22;24821;51.988;6.020;2023-05-10T02:37:38;15.10;99.90
39067;DHT22;24821;51.988;6.020;2023-05-10T02:40:05;15.20;99.90
39067;DHT22;24821;51.988;6.020;2023-05-10T02:42:35;15.20;99.90
39067;DHT22;24821;51.988;6.020;2023-05-10T02:45:02;15.10;99.90
39067;DHT22;24821;51.988;6.020;2023-05-10T02:47:30;15.10;99.90
39067;DHT22;24821;51.988;6.020;2023-05-10T02:49:55;15.10;99.90
39067;DHT22;24821;51.988;6.020;2023-05-10T02:52:29;15.10;99.90
39067;DHT22;24821;51.988;6.020;2023-05-10T02:55:00;15.10;99.90
39067;DHT22;24821;51.988;6.020;2023-05-10T02:57:32;15.10;99.90
39067;DHT22;24821;51.988;6.020;2023-05-10T02:59:57;15.10;99.90
39067;DHT22;24821;51.988;6.020;2023-05-10T03:02:23;15.00;99.90
39067;DHT22;24821;51.988;6.020;2023-05-10T03:04:49;15.10;99.90
39067;DHT22;24821;51.988;6.020;2023-05-10T03:07:15;15.10;99.90
39067;DHT22;24821;51.988;6.020;2023-05-10T03:09:41;15.00;99.90
39067;DHT22;24821;51.988;6.020;2023-05-10T03:17:56;15.00;99.90
39067;DHT22;24821;51.988;6.020;2023-05-10T03:20:43;14.90;99.90
39067;DHT22;24821;51.988;6.020;2023-05-10T03:23:22;14.90;99.90
39067;DHT22;24821;51.988;6.020;2023-05-10T03:25:50;14.90;99.90
39067;DHT22;24821;51.988;6.020;2023-05-10T03:28:18;14.90;99.90
39067;DHT22;24821;51.988;6.020;2023-05-10T03:30:44;14.90;99.90
39067;DHT22;24821;51.988;6.020;2023-05-10T03:33:10;14.90;99.90
39067;DHT22;24821;51.988;6.020;2023-05-10T03:35:36;14.80;99.90
39067;DHT22;24821;51.988;6.020;2023-05-10T03:38:01;14.80;99.90
39067;DHT22;24821;51.988;6.020;2023-05-10T03:40:27;14.80;99.90
39067;DHT22;24821;51.988;6.020;2023-05-10T03:43:00;14.80;99.90
39067;DHT22;24821;51.988;6.020;2023-05-10T03:45:26;14.80;99.90
39067;DHT22;24821;51.988;6.020;2023-05-10T03:47:52;14.80;99.90
39067;DHT22;24821;51.988;6.020;2023-05-10T03:50:17;14.80;99.90
39067;DHT22;24821;51.988;6.020;2023-05-10T03:52:43;14.70;99.90
39067;DHT22;24821;51.988;6.020;2023-05-10T03:55:09;14.70;99.90
39067;DHT22;24821;51.988;6.020;2023-05-10T03:57:35;14.70;99.90
39067;DHT22;24821;51.988;6.020;2023-05-10T04:00:01;14.70;99.90
39067;DHT22;24821;51.988;6.020;2023-05-10T04:02:27;14.70;99.90
39067;DHT22;24821;51.988;6.020;2023-05-10T04:04:53;14.70;99.90
39067;DHT22;24821;51.988;6.020;2023-05-10T04:07:18;14.70;99.90
39067;DHT22;24821;51.988;6.020;2023-05-10T04:09:44;14.70;99.90
39067;DHT22;24821;51.988;6.020;2023-05-10T04:12:09;14.60;99.90
39067;DHT22;24821;51.988;6.020;2023-05-10T04:14:35;14.60;99.90
39067;DHT22;24821;51.988;6.020;2023-05-10T04:17:00;14.60;99.90
39067;DHT22;24821;51.988;6.020;2023-05-10T04:19:32;14.60;99.90
39067;DHT22;24821;51.988;6.020;2023-05-10T04:21:58;14.60;99.90
39067;DHT22;24821;51.988;6.020;2023-05-10T04:24:24;14.60;99.90
39067;DHT22;24821;51.988;6.020;2023-05-10T04:26:50;14.60;99.90
39067;DHT22;24821;51.988;6.020;2023-05-10T04:29:16;14.60;99.90
39067;DHT22;24821;51.988;6.020;2023-05-10T04:31:41;14.60;99.90
39067;DHT22;24821;51.988;6.020;2023-05-10T04:34:07;14.60;99.90
39067;DHT22;24821;51.988;6.020;2023-05-10T04:36:32;14.50;99.90
39067;DHT22;24821;51.988;6.020;2023-05-10T04:39:00;14.50;99.90
39067;DHT22;24821;51.988;6.020;2023-05-10T04:41:26;14.50;99.90
39067;DHT22;24821;51.988;6.020;2023-05-10T04:43:51;14.50;99.90
39067;DHT22;24821;51.988;6.020;2023-05-10T04:46:17;14.50;99.90
39067;DHT22;24821;51.988;6.020;2023-05-10T04:48:42;14.50;99.90
39067;DHT22;24821;51.988;6.020;2023-05-10T04:51:08;14.50;99.90
39067;DHT22;24821;51.988;6.020;2023-05-10T04:53:33;14.60;99.90
39067;DHT22;24821;51.988;6.020;2023-05-10T04:55:59;14.50;99.90
39067;DHT22;24821;51.988;6.020;2023-05-10T04:58:25;14.50;99.90
39067;DHT22;24821;51.988;6.020;2023-05-10T05:00:50;14.50;99.90
39067;DHT22;24821;51.988;6.020;2023-05-10T05:03:16;14.50;99.90
39067;DHT22;24821;51.988;6.020;2023-05-10T05:05:41;14.50;99.90
39067;DHT22;24821;51.988;6.020;2023-05-10T05:08:07;14.50;99.90
39067;DHT22;24821;51.988;6.020;2023-05-10T05:10:32;14.50;99.90
39067;DHT22;24821;51.988;6.020;2023-05-10T05:12:58;14.50;99.90
39067;DHT22;24821;51.988;6.020;2023-05-10T05:15:23;14.50;99.90
39067;DHT22;24821;51.988;6.020;2023-05-10T05:17:49;14.50;99.90
39067;DHT22;24821;51.988;6.020;2023-05-10T05:20:14;14.50;99.90
39067;DHT22;24821;51.988;6.020;2023-05-10T05:22:40;14.60;99.90
39067;DHT22;24821;51.988;6.020;2023-05-10T05:25:06;14.60;99.90
39067;DHT22;24821;51.988;6.020;2023-05-10T05:27:32;14.60;99.90
39067;DHT22;24821;51.988;6.020;2023-05-10T05:29:58;14.70;99.90
39067;DHT22;24821;51.988;6.020;2023-05-10T05:32:24;14.70;99.90
39067;DHT22;24821;51.988;6.020;2023-05-10T05:34:50;14.70;99.90
39067;DHT22;24821;51.988;6.020;2023-05-10T05:37:20;14.70;99.90
39067;DHT22;24821;51.988;6.020;2023-05-10T05:39:46;14.70;99.90
39067;DHT22;24821;51.988;6.020;2023-05-10T05:42:13;14.70;99.90
39067;DHT22;24821;51.988;6.020;2023-05-10T05:44:39;14.80;99.90
39067;DHT22;24821;51.988;6.020;2023-05-10T05:47:05;14.80;99.90
39067;DHT22;24821;51.988;6.020;2023-05-10T05:49:31;14.80;99.90
39067;DHT22;24821;51.988;6.020;2023-05-10T05:52:03;14.90;99.90
39067;DHT22;24821;51.988;6.020;2023-05-10T05:54:30;14.90;99.90
39067;DHT22;24821;51.988;6.020;2023-05-10T05:56:57;15.00;99.90
39067;DHT22;24821;51.988;6.020;2023-05-10T05:59:23;15.00;99.90
39067;DHT22;24821;51.988;6.020;2023-05-10T06:01:48;15.10;99.90
39067;DHT22;24821;51.988;6.020;2023-05-10T06:04:14;15.10;99.90
39067;DHT22;24821;51.988;6.020;2023-05-10T06:06:40;15.20;99.90
39067;DHT22;24821;51.988;6.020;2023-05-10T06:09:05;15.20;99.90
39067;DHT22;24821;51.988;6.020;2023-05-10T06:11:31;15.30;99.90
39067;DHT22;24821;51.988;6.020;2023-05-10T06:13:58;15.40;99.90
39067;DHT22;24821;51.988;6.020;2023-05-10T06:16:23;15.30;99.90
39067;DHT22;24821;51.988;6.020;2023-05-10T06:18:49;15.40;99.90
39067;DHT22;24821;51.988;6.020;2023-05-10T06:21:14;15.40;99.90
39067;DHT22;24821;51.988;6.020;2023-05-10T06:23:41;15.40;99.90
39067;DHT22;24821;51.988;6.020;2023-05-10T06:26:07;15.40;99.90
39067;DHT22;24821;51.988;6.020;2023-05-10T06:28:32;15.40;99.90
39067;DHT22;24821;51.988;6.020;2023-05-10T06:30:59;15.40;99.90
39067;DHT22;24821;51.988;6.020;2023-05-10T06:33:24;15.30;99.90
39067;DHT22;24821;51.988;6.020;2023-05-10T06:35:50;15.30;99.90
39067;DHT22;24821;51.988;6.020;2023-05-10T06:38:15;15.30;99.90
39067;DHT22;24821;51.988;6.020;2023-05-10T06:40:41;15.40;99.90
39067;DHT22;24821;51.988;6.020;2023-05-10T06:43:07;15.30;99.90
39067;DHT22;24821;51.988;6.020;2023-05-10T06:45:33;15.30;99.90
39067;DHT22;24821;51.988;6.020;2023-05-10T06:47:58;15.20;99.90
39067;DHT22;24821;51.988;6.020;2023-05-10T06:50:24;15.20;99.90
39067;DHT22;24821;51.988;6.020;2023-05-10T06:52:50;15.20;99.90
39067;DHT22;24821;51.988;6.020;2023-05-10T06:55:15;15.20;99.90
39067;DHT22;24821;51.988;6.020;2023-05-10T06:57:41;15.20;99.90
39067;DHT22;24821;51.988;6.020;2023-05-10T07:00:07;15.20;99.90
39067;DHT22;24821;51.988;6.020;2023-05-10T07:02:33;15.20;99.90
39067;DHT22;24821;51.988;6.020;2023-05-10T07:04:58;15.20;99.90
39067;DHT22;24821;51.988;6.020;2023-05-10T07:07:24;15.20;99.90
39067;DHT22;24821;51.988;6.020;2023-05-10T07:09:49;15.20;99.90
39067;DHT22;24821;51.988;6.020;2023-05-10T07:12:16;15.20;99.90
39067;DHT22;24821;51.988;6.020;2023-05-10T07:14:42;15.30;99.90
39067;DHT22;24821;51.988;6.020;2023-05-10T07:17:08;15.20;99.90
39067;DHT22;24821;51.988;6.020;2023-05-10T07:19:33;15.30;99.90
39067;DHT22;24821;51.988;6.020;2023-05-10T07:21:59;15.30;99.90
39067;DHT22;24821;51.988;6.020;2023-05-10T07:24:25;15.30;99.90
39067;DHT22;24821;51.988;6.020;2023-05-10T07:26:50;15.30;99.90
39067;DHT22;24821;51.988;6.020;2023-05-10T07:29:16;15.40;99.90
39067;DHT22;24821;51.988;6.020;2023-05-10T07:31:42;15.40;99.90
39067;DHT22;24821;51.988;6.020;2023-05-10T07:34:08;15.40;99.90
39067;DHT22;24821;51.988;6.020;2023-05-10T07:36:34;15.40;99.90
39067;DHT22;24821;51.988;6.020;2023-05-10T07:39:00;15.40;99.90
39067;DHT22;24821;51.988;6.020;2023-05-10T07:41:25;15.40;99.90
39067;DHT22;24821;51.988;6.020;2023-05-10T07:43:51;15.50;99.90
39067;DHT22;24821;51.988;6.020;2023-05-10T07:46:17;15.60;99.90
39067;DHT22;24821;51.988;6.020;2023-05-10T07:48:44;15.60;99.90
39067;DHT22;24821;51.988;6.020;2023-05-10T07:51:10;15.60;99.90
39067;DHT22;24821;51.988;6.020;2023-05-10T07:53:36;15.60;99.90
39067;DHT22;24821;51.988;6.020;2023-05-10T07:56:26;15.60;99.90
39067;DHT22;24821;51.988;6.020;2023-05-10T07:58:53;15.70;99.90
39067;DHT22;24821;51.988;6.020;2023-05-10T08:01:19;15.70;99.90
39067;DHT22;24821;51.988;6.020;2023-05-10T08:03:45;15.80;99.90
39067;DHT22;24821;51.988;6.020;2023-05-10T08:06:11;15.90;99.90
39067;DHT22;24821;51.988;6.020;2023-05-10T08:08:37;16.00;99.90
39067;DHT22;24821;51.988;6.020;2023-05-10T08:11:03;16.20;99.90
39067;DHT22;24821;51.988;6.020;2023-05-10T08:13:29;16.20;99.90
39067;DHT22;24821;51.988;6.020;2023-05-10T08:15:54;16.30;99.90
39067;DHT22;24821;51.988;6.020;2023-05-10T08:18:20;16.40;99.90
39067;DHT22;24821;51.988;6.020;2023-05-10T08:20:46;16.40;99.90
39067;DHT22;24821;51.988;6.020;2023-05-10T08:23:14;16.60;99.90
39067;DHT22;24821;51.988;6.020;2023-05-10T08:25:41;16.70;99.90
39067;DHT22;24821;51.988;6.020;2023-05-10T08:28:06;16.90;99.90
39067;DHT22;24821;51.988;6.020;2023-05-10T08:30:32;17.10;99.90
39067;DHT22;24821;51.988;6.020;2023-05-10T08:32:57;17.30;99.90
39067;DHT22;24821;51.988;6.020;2023-05-10T08:35:23;17.50;99.90
39067;DHT22;24821;51.988;6.020;2023-05-10T08:37:50;17.60;99.90
39067;DHT22;24821;51.988;6.020;2023-05-10T08:40:16;17.60;99.90
39067;DHT22;24821;51.988;6.020;2023-05-10T08:42:47;17.50;99.90
39067;DHT22;24821;51.988;6.020;2023-05-10T08:45:17;17.50;99.90
39067;DHT22;24821;51.988;6.020;2023-05-10T08:47:44;17.50;99.90
39067;DHT22;24821;51.988;6.020;2023-05-10T08:50:11;17.60;99.90
39067;DHT22;24821;51.988;6.020;2023-05-10T08:52:38;17.70;99.90
39067;DHT22;24821;51.988;6.020;2023-05-10T08:55:05;17.70;99.90
39067;DHT22;24821;51.988;6.020;2023-05-10T08:57:31;17.50;99.90
39067;DHT22;24821;51.988;6.020;2023-05-10T08:59:57;17.30;99.90
39067;DHT22;24821;51.988;6.020;2023-05-10T09:02:25;17.20;99.90
39067;DHT22;24821;51.988;6.020;2023-05-10T09:04:51;17.10;99.90
39067;DHT22;24821;51.988;6.020;2023-05-10T09:07:17;16.90;99.90
39067;DHT22;24821;51.988;6.020;2023-05-10T09:09:42;16.70;99.90
39067;DHT22;24821;51.988;6.020;2023-05-10T09:12:09;16.70;99.90
39067;DHT22;24821;51.988;6.020;2023-05-10T09:14:36;16.60;99.90
39067;DHT22;24821;51.988;6.020;2023-05-10T09:17:03;16.50;99.90
39067;DHT22;24821;51.988;6.020;2023-05-10T09:19:29;16.60;99.90
39067;DHT22;24821;51.988;6.020;2023-05-10T09:21:54;16.70;99.90
39067;DHT22;24821;51.988;6.020;2023-05-10T09:24:25;16.80;99.90
39067;DHT22;24821;51.988;6.020;2023-05-10T09:26:50;17.00;99.90
39067;DHT22;24821;51.988;6.020;2023-05-10T09:29:16;17.10;99.90
39067;DHT22;24821;51.988;6.020;2023-05-10T09:31:50;17.20;99.90
39067;DHT22;24821;51.988;6.020;2023-05-10T09:34:31;17.30;99.90
39067;DHT22;24821;51.988;6.020;2023-05-10T09:36:59;17.30;99.90
39067;DHT22;24821;51.988;6.020;2023-05-10T09:39:33;17.20;99.90
39067;DHT22;24821;51.988;6.020;2023-05-10T09:42:01;17.40;99.90
39067;DHT22;24821;51.988;6.020;2023-05-10T09:44:26;17.70;99.90
39067;DHT22;24821;51.988;6.020;2023-05-10T09:46:52;18.00;99.90
39067;DHT22;24821;51.988;6.020;2023-05-10T09:49:19;18.20;99.90
39067;DHT22;24821;51.988;6.020;2023-05-10T09:51:45;18.30;99.90
39067;DHT22;24821;51.988;6.020;2023-05-10T09:54:15;18.20;99.90
39067;DHT22;24821;51.988;6.020;2023-05-10T09:56:41;18.20;99.90
39067;DHT22;24821;51.988;6.020;2023-05-10T09:59:11;18.10;99.90
39067;DHT22;24821;51.988;6.020;2023-05-10T10:01:38;18.20;99.90
39067;DHT22;24821;51.988;6.020;2023-05-10T10:04:05;18.30;99.90
39067;DHT22;24821;51.988;6.020;2023-05-10T10:06:38;18.40;99.90
39067;DHT22;24821;51.988;6.020;2023-05-10T10:09:05;18.50;99.90
39067;DHT22;24821;51.988;6.020;2023-05-10T10:11:32;18.50;99.90
39067;DHT22;24821;51.988;6.020;2023-05-10T10:13:58;18.70;99.90
39067;DHT22;24821;51.988;6.020;2023-05-10T10:16:24;18.80;99.90
39067;DHT22;24821;51.988;6.020;2023-05-10T10:18:50;18.80;99.90
39067;DHT22;24821;51.988;6.020;2023-05-10T10:21:16;18.80;99.90
39067;DHT22;24821;51.988;6.020;2023-05-10T10:23:42;18.80;99.90
39067;DHT22;24821;51.988;6.020;2023-05-10T10:26:10;18.90;99.90
39067;DHT22;24821;51.988;6.020;2023-05-10T10:31:34;18.90;99.90
39067;DHT22;24821;51.988;6.020;2023-05-10T10:34:06;18.80;99.90
39067;DHT22;24821;51.988;6.020;2023-05-10T10:36:43;18.70;99.90
39067;DHT22;24821;51.988;6.020;2023-05-10T10:39:10;18.70;99.90
39067;DHT22;24821;51.988;6.020;2023-05-10T10:41:38;18.70;99.90
39067;DHT22;24821;51.988;6.020;2023-05-10T10:44:26;18.60;99.90
39067;DHT22;24821;51.988;6.020;2023-05-10T10:47:22;18.50;99.90
39067;DHT22;24821;51.988;6.020;2023-05-10T10:57:30;18.50;99.90
39067;DHT22;24821;51.988;6.020;2023-05-10T11:00:29;18.40;99.90
39067;DHT22;24821;51.988;6.020;2023-05-10T11:07:57;18.70;99.90
39067;DHT22;24821;51.988;6.020;2023-05-10T11:10:24;18.80;99.90
39067;DHT22;24821;51.988;6.020;2023-05-10T11:13:02;18.70;99.90
39067;DHT22;24821;51.988;6.020;2023-05-10T11:15:37;18.80;99.90
39067;DHT22;24821;51.988;6.020;2023-05-10T11:18:24;18.90;99.90
39067;DHT22;24821;51.988;6.020;2023-05-10T11:20:51;18.90;99.90
39067;DHT22;24821;51.988;6.020;2023-05-10T11:23:17;18.90;99.90
39067;DHT22;24821;51.988;6.020;2023-05-10T11:25:44;18.90;99.90
39067;DHT22;24821;51.988;6.020;2023-05-10T11:28:14;18.90;99.90
39067;DHT22;24821;51.988;6.020;2023-05-10T11:30:41;18.80;99.90
39067;DHT22;24821;51.988;6.020;2023-05-10T11:33:07;18.70;99.90
39067;DHT22;24821;51.988;6.020;2023-05-10T11:35:40;18.70;99.90
39067;DHT22;24821;51.988;6.020;2023-05-10T11:38:07;18.90;99.90
39067;DHT22;24821;51.988;6.020;2023-05-10T11:40:33;19.00;99.90
39067;DHT22;24821;51.988;6.020;2023-05-10T11:42:59;19.10;99.90
39067;DHT22;24821;51.988;6.020;2023-05-10T11:45:24;19.20;99.90
39067;DHT22;24821;51.988;6.020;2023-05-10T11:47:51;19.40;99.90
39067;DHT22;24821;51.988;6.020;2023-05-10T11:50:17;19.60;99.90
39067;DHT22;24821;51.988;6.020;2023-05-10T11:52:43;19.80;99.90
39067;DHT22;24821;51.988;6.020;2023-05-10T11:55:09;19.90;99.90
39067;DHT22;24821;51.988;6.020;2023-05-10T11:57:35;20.00;99.90
39067;DHT22;24821;51.988;6.020;2023-05-10T12:00:00;20.00;99.90
39067;DHT22;24821;51.988;6.020;2023-05-10T12:02:29;20.00;99.90
39067;DHT22;24821;51.988;6.020;2023-05-10T12:04:55;20.00;99.90
39067;DHT22;24821;51.988;6.020;2023-05-10T12:07:21;19.90;99.90
39067;DHT22;24821;51.988;6.020;2023-05-10T12:10:07;19.90;99.90
39067;DHT22;24821;51.988;6.020;2023-05-10T12:12:43;19.80;99.90
39067;DHT22;24821;51.988;6.020;2023-05-10T12:15:11;19.80;99.90
39067;DHT22;24821;51.988;6.020;2023-05-10T12:17:38;19.80;99.90
39067;DHT22;24821;51.988;6.020;2023-05-10T12:20:14;19.80;99.90
39067;DHT22;24821;51.988;6.020;2023-05-10T12:22:43;19.80;99.90
39067;DHT22;24821;51.988;6.020;2023-05-10T12:25:09;19.90;99.90
39067;DHT22;24821;51.988;6.020;2023-05-10T12:27:35;20.00;99.90
39067;DHT22;24821;51.988;6.020;2023-05-10T12:30:02;20.00;99.90
39067;DHT22;24821;51.988;6.020;2023-05-10T12:32:41;20.00;99.90
39067;DHT22;24821;51.988;6.020;2023-05-10T12:35:07;20.00;99.50
39067;DHT22;24821;51.988;6.020;2023-05-10T12:37:33;19.80;99.70
39067;DHT22;24821;51.988;6.020;2023-05-10T12:40:01;19.80;99.80
39067;DHT22;24821;51.988;6.020;2023-05-10T12:42:28;19.80;99.90
39067;DHT22;24821;51.988;6.020;2023-05-10T12:44:57;19.90;99.90
39067;DHT22;24821;51.988;6.020;2023-05-10T12:47:23;20.10;99.90
39067;DHT22;24821;51.988;6.020;2023-05-10T12:49:48;20.20;99.90
39067;DHT22;24821;51.988;6.020;2023-05-10T12:52:14;20.50;99.50
39067;DHT22;24821;51.988;6.020;2023-05-10T12:54:39;20.50;99.40
39067;DHT22;24821;51.988;6.020;2023-05-10T12:57:05;20.60;99.30
39067;DHT22;24821;51.988;6.020;2023-05-10T12:59:30;20.70;98.80
39067;DHT22;24821;51.988;6.020;2023-05-10T13:01:57;20.80;98.70
39067;DHT22;24821;51.988;6.020;2023-05-10T13:04:23;20.90;98.60
39067;DHT22;24821;51.988;6.020;2023-05-10T13:06:48;20.90;98.60
39067;DHT22;24821;51.988;6.020;2023-05-10T13:09:14;20.90;98.70
39067;DHT22;24821;51.988;6.020;2023-05-10T13:11:40;21.00;99.00
39067;DHT22;24821;51.988;6.020;2023-05-10T13:14:06;21.00;98.90
39067;DHT22;24821;51.988;6.020;2023-05-10T13:16:32;20.90;98.60
39067;DHT22;24821;51.988;6.020;2023-05-10T13:18:57;20.90;98.40
39067;DHT22;24821;51.988;6.020;2023-05-10T13:21:23;20.80;98.30
39067;DHT22;24821;51.988;6.020;2023-05-10T13:23:50;20.60;98.10
39067;DHT22;24821;51.988;6.020;2023-05-10T13:26:16;20.60;98.50
39067;DHT22;24821;51.988;6.020;2023-05-10T13:28:41;20.50;98.80
39067;DHT22;24821;51.988;6.020;2023-05-10T13:31:07;20.50;99.40
39067;DHT22;24821;51.988;6.020;2023-05-10T13:33:33;20.50;99.30
39067;DHT22;24821;51.988;6.020;2023-05-10T13:35:58;20.40;99.40
39067;DHT22;24821;51.988;6.020;2023-05-10T13:38:24;20.30;99.00
39067;DHT22;24821;51.988;6.020;2023-05-10T13:40:49;20.30;99.00
39067;DHT22;24821;51.988;6.020;2023-05-10T13:43:18;20.20;99.10
39067;DHT22;24821;51.988;6.020;2023-05-10T13:45:43;20.20;99.10
39067;DHT22;24821;51.988;6.020;2023-05-10T13:48:09;20.10;99.30
39067;DHT22;24821;51.988;6.020;2023-05-10T13:50:34;20.10;99.80
39067;DHT22;24821;51.988;6.020;2023-05-10T13:53:00;20.10;99.90
39067;DHT22;24821;51.988;6.020;2023-05-10T13:55:26;20.10;99.60
39067;DHT22;24821;51.988;6.020;2023-05-10T13:57:51;20.00;99.50
39067;DHT22;24821;51.988;6.020;2023-05-10T14:00:17;19.90;99.40
39067;DHT22;24821;51.988;6.020;2023-05-10T14:02:43;19.70;99.60
39067;DHT22;24821;51.988;6.020;2023-05-10T14:05:08;19.50;99.90
39067;DHT22;24821;51.988;6.020;2023-05-10T14:07:34;19.40;99.90
39067;DHT22;24821;51.988;6.020;2023-05-10T14:10:00;19.30;99.90
39067;DHT22;24821;51.988;6.020;2023-05-10T14:12:25;19.20;99.90
39067;DHT22;24821;51.988;6.020;2023-05-10T14:14:51;19.10;99.90
39067;DHT22;24821;51.988;6.020;2023-05-10T14:17:17;19.10;99.90
39067;DHT22;24821;51.988;6.020;2023-05-10T14:19:43;19.10;99.90
39067;DHT22;24821;51.988;6.020;2023-05-10T14:22:09;19.10;99.90
39067;DHT22;24821;51.988;6.020;2023-05-10T14:24:34;19.20;99.90
39067;DHT22;24821;51.988;6.020;2023-05-10T14:27:00;19.20;99.90
39067;DHT22;24821;51.988;6.020;2023-05-10T14:29:25;19.30;99.90
39067;DHT22;24821;51.988;6.020;2023-05-10T14:31:51;19.30;99.90
39067;DHT22;24821;51.988;6.020;2023-05-10T14:34:17;19.20;99.90
39067;DHT22;24821;51.988;6.020;2023-05-10T14:36:42;19.20;99.90
39067;DHT22;24821;51.988;6.020;2023-05-10T14:39:08;19.10;99.90
39067;DHT22;24821;51.988;6.020;2023-05-10T14:41:35;19.00;99.90
39067;DHT22;24821;51.988;6.020;2023-05-10T14:44:01;19.00;99.90
39067;DHT22;24821;51.988;6.020;2023-05-10T14:46:28;19.00;99.90
39067;DHT22;24821;51.988;6.020;2023-05-10T14:48:55;18.90;99.90
39067;DHT22;24821;51.988;6.020;2023-05-10T14:51:20;18.90;99.90
39067;DHT22;24821;51.988;6.020;2023-05-10T14:53:50;18.90;99.90
39067;DHT22;24821;51.988;6.020;2023-05-10T14:56:16;18.90;99.90
39067;DHT22;24821;51.988;6.020;2023-05-10T14:58:42;18.90;99.90
39067;DHT22;24821;51.988;6.020;2023-05-10T15:01:07;19.00;99.90
39067;DHT22;24821;51.988;6.020;2023-05-10T15:03:33;19.00;99.90
39067;DHT22;24821;51.988;6.020;2023-05-10T15:05:59;19.00;99.90
39067;DHT22;24821;51.988;6.020;2023-05-10T15:08:24;18.90;99.90
39067;DHT22;24821;51.988;6.020;2023-05-10T15:10:50;18.90;99.90
39067;DHT22;24821;51.988;6.020;2023-05-10T15:13:16;19.00;99.90
39067;DHT22;24821;51.988;6.020;2023-05-10T15:15:42;18.90;99.90
39067;DHT22;24821;51.988;6.020;2023-05-10T15:18:09;18.90;99.90
39067;DHT22;24821;51.988;6.020;2023-05-10T15:20:34;18.90;99.90
39067;DHT22;24821;51.988;6.020;2023-05-10T15:23:00;18.90;99.90
39067;DHT22;24821;51.988;6.020;2023-05-10T15:25:26;18.80;99.90
39067;DHT22;24821;51.988;6.020;2023-05-10T15:27:53;18.80;99.90
39067;DHT22;24821;51.988;6.020;2023-05-10T15:30:18;18.70;99.90
39067;DHT22;24821;51.988;6.020;2023-05-10T15:32:44;18.70;99.90
39067;DHT22;24821;51.988;6.020;2023-05-10T15:35:09;18.60;99.90
39067;DHT22;24821;51.988;6.020;2023-05-10T15:37:36;18.50;99.90
39067;DHT22;24821;51.988;6.020;2023-05-10T15:40:01;18.50;99.90
39067;DHT22;24821;51.988;6.020;2023-05-10T15:42:30;18.50;99.90
39067;DHT22;24821;51.988;6.020;2023-05-10T15:44:57;18.40;99.90
39067;DHT22;24821;51.988;6.020;2023-05-10T15:47:23;18.40;99.90
39067;DHT22;24821;51.988;6.020;2023-05-10T15:49:48;18.40;99.90
39067;DHT22;24821;51.988;6.020;2023-05-10T15:52:14;18.50;99.90
39067;DHT22;24821;51.988;6.020;2023-05-10T15:54:39;18.50;99.90
39067;DHT22;24821;51.988;6.020;2023-05-10T15:57:05;18.50;99.90
39067;DHT22;24821;51.988;6.020;2023-05-10T15:59:32;18.50;99.90
39067;DHT22;24821;51.988;6.020;2023-05-10T16:01:57;18.60;99.90